sensor_id;sensor_type;location;lat;lon;timestamp;temperature;humidity
10294;DHT22;5192;50.328;7.610;2023-07-31T00:01:14;19.00;1.00
10294;DHT22;5192;50.328;7.610;2023-07-31T00:03:40;19.00;1.00
10294;DHT22;5192;50.328;7.610;2023-07-31T00:06:07;18.90;1.00
10294;DHT22;5192;50.328;7.610;2023-07-31T00:08:33;18.90;1.00
10294;DHT22;5192;50.328;7.610;2023-07-31T00:11:01;18.90;1.00
10294;DHT22;5192;50.328;7.610;2023-07-31T00:13:29;18.90;1.00
10294;DHT22;5192;50.328;7.610;2023-07-31T00:15:56;18.90;1.00
10294;DHT22;5192;50.328;7.610;2023-07-31T00:18:23;18.90;1.00
10294;DHT22;5192;50.328;7.610;2023-07-31T00:20:51;18.90;1.00
10294;DHT22;5192;50.328;7.610;2023-07-31T00:23:18;18.80;1.00
10294;DHT22;5192;50.328;7.610;2023-07-31T00:25:45;18.80;1.00
10294;DHT22;5192;50.328;7.610;2023-07-31T00:28:12;18.80;1.00
10294;DHT22;5192;50.328;7.610;2023-07-31T00:30:39;18.80;1.00
10294;DHT22;5192;50.328;7.610;2023-07-31T00:33:05;18.80;1.00
10294;DHT22;5192;50.328;7.610;2023-07-31T00:35:32;18.70;1.00
10294;DHT22;5192;50.328;7.610;2023-07-31T00:37:59;18.70;1.00
10294;DHT22;5192;50.328;7.610;2023-07-31T00:40:28;18.60;1.00
10294;DHT22;5192;50.328;7.610;2023-07-31T00:42:53;18.60;1.90
10294;DHT22;5192;50.328;7.610;2023-07-31T00:45:20;18.60;2.00
10294;DHT22;5192;50.328;7.610;2023-07-31T00:47:51;18.60;1.90
10294;DHT22;5192;50.328;7.610;2023-07-31T00:50:18;18.60;2.50
10294;DHT22;5192;50.328;7.610;2023-07-31T00:52:45;18.60;1.70
10294;DHT22;5192;50.328;7.610;2023-07-31T00:55:11;18.60;1.60
10294;DHT22;5192;50.328;7.610;2023-07-31T00:57:39;18.60;3.50
10294;DHT22;5192;50.328;7.610;2023-07-31T01:00:09;18.60;2.80
10294;DHT22;5192;50.328;7.610;2023-07-31T01:02:37;18.60;4.30
10294;DHT22;5192;50.328;7.610;2023-07-31T01:05:04;18.60;3.90
10294;DHT22;5192;50.328;7.610;2023-07-31T01:08:12;18.60;4.50
10294;DHT22;5192;50.328;7.610;2023-07-31T01:10:56;18.60;4.80
10294;DHT22;5192;50.328;7.610;2023-07-31T01:13:24;18.60;5.40
10294;DHT22;5192;50.328;7.610;2023-07-31T01:15:52;18.60;7.50
10294;DHT22;5192;50.328;7.610;2023-07-31T01:18:20;18.60;6.80
10294;DHT22;5192;50.328;7.610;2023-07-31T01:20:54;18.60;8.00
10294;DHT22;5192;50.328;7.610;2023-07-31T01:23:31;18.60;8.80
10294;DHT22;5192;50.328;7.610;2023-07-31T01:26:19;18.50;9.70
10294;DHT22;5192;50.328;7.610;2023-07-31T01:31:36;18.50;10.70
10294;DHT22;5192;50.328;7.610;2023-07-31T01:34:07;18.50;11.80
10294;DHT22;5192;50.328;7.610;2023-07-31T01:36:35;18.50;9.90
10294;DHT22;5192;50.328;7.610;2023-07-31T01:39:02;18.50;11.20
10294;DHT22;5192;50.328;7.610;2023-07-31T01:41:31;18.60;12.90
10294;DHT22;5192;50.328;7.610;2023-07-31T01:43:56;18.50;13.00
10294;DHT22;5192;50.328;7.610;2023-07-31T01:46:22;18.50;14.30
10294;DHT22;5192;50.328;7.610;2023-07-31T01:48:50;18.40;13.60
10294;DHT22;5192;50.328;7.610;2023-07-31T01:51:18;18.40;13.90
10294;DHT22;5192;50.328;7.610;2023-07-31T01:53:46;18.40;15.30
10294;DHT22;5192;50.328;7.610;2023-07-31T01:56:13;18.40;14.30
10294;DHT22;5192;50.328;7.610;2023-07-31T01:58:41;18.40;14.40
10294;DHT22;5192;50.328;7.610;2023-07-31T02:01:08;18.40;14.50
10294;DHT22;5192;50.328;7.610;2023-07-31T02:03:34;18.40;15.50
10294;DHT22;5192;50.328;7.610;2023-07-31T02:06:02;18.40;16.60
10294;DHT22;5192;50.328;7.610;2023-07-31T02:08:29;18.30;17.00
10294;DHT22;5192;50.328;7.610;2023-07-31T02:10:55;18.30;17.30
10294;DHT22;5192;50.328;7.610;2023-07-31T02:13:25;18.30;19.00
10294;DHT22;5192;50.328;7.610;2023-07-31T02:15:51;18.30;18.50
10294;DHT22;5192;50.328;7.610;2023-07-31T02:18:18;18.30;19.90
10294;DHT22;5192;50.328;7.610;2023-07-31T02:20:49;18.30;20.60
10294;DHT22;5192;50.328;7.610;2023-07-31T02:23:16;18.30;21.60
10294;DHT22;5192;50.328;7.610;2023-07-31T02:25:45;18.30;23.40
10294;DHT22;5192;50.328;7.610;2023-07-31T02:28:13;18.20;24.80
10294;DHT22;5192;50.328;7.610;2023-07-31T02:30:39;18.20;25.70
10294;DHT22;5192;50.328;7.610;2023-07-31T02:33:07;18.20;26.60
10294;DHT22;5192;50.328;7.610;2023-07-31T02:35:34;18.10;28.10
10294;DHT22;5192;50.328;7.610;2023-07-31T02:38:03;18.10;28.80
10294;DHT22;5192;50.328;7.610;2023-07-31T02:40:29;18.10;28.60
10294;DHT22;5192;50.328;7.610;2023-07-31T02:42:56;18.10;29.20
10294;DHT22;5192;50.328;7.610;2023-07-31T02:45:23;18.00;30.30
10294;DHT22;5192;50.328;7.610;2023-07-31T02:47:52;18.00;30.10
10294;DHT22;5192;50.328;7.610;2023-07-31T02:50:19;18.00;31.40
10294;DHT22;5192;50.328;7.610;2023-07-31T02:52:47;18.00;31.20
10294;DHT22;5192;50.328;7.610;2023-07-31T02:55:14;18.00;32.50
10294;DHT22;5192;50.328;7.610;2023-07-31T02:57:42;17.90;32.70
10294;DHT22;5192;50.328;7.610;2023-07-31T03:00:09;17.90;34.30
10294;DHT22;5192;50.328;7.610;2023-07-31T03:02:37;17.90;33.80
10294;DHT22;5192;50.328;7.610;2023-07-31T03:05:02;17.90;35.00
10294;DHT22;5192;50.328;7.610;2023-07-31T03:07:30;17.90;34.50
10294;DHT22;5192;50.328;7.610;2023-07-31T03:09:58;17.90;35.50
10294;DHT22;5192;50.328;7.610;2023-07-31T03:12:25;17.90;36.00
10294;DHT22;5192;50.328;7.610;2023-07-31T03:14:54;17.90;37.10
10294;DHT22;5192;50.328;7.610;2023-07-31T03:17:20;17.90;37.60
10294;DHT22;5192;50.328;7.610;2023-07-31T03:19:49;17.90;38.10
10294;DHT22;5192;50.328;7.610;2023-07-31T03:22:17;17.90;38.80
10294;DHT22;5192;50.328;7.610;2023-07-31T03:24:45;17.90;39.50
10294;DHT22;5192;50.328;7.610;2023-07-31T03:27:12;17.80;40.10
10294;DHT22;5192;50.328;7.610;2023-07-31T03:29:39;17.90;40.60
10294;DHT22;5192;50.328;7.610;2023-07-31T03:32:06;17.80;41.90
10294;DHT22;5192;50.328;7.610;2023-07-31T03:34:33;17.80;42.90
10294;DHT22;5192;50.328;7.610;2023-07-31T03:37:01;17.80;42.30
10294;DHT22;5192;50.328;7.610;2023-07-31T03:39:32;17.80;43.90
10294;DHT22;5192;50.328;7.610;2023-07-31T03:41:57;17.80;45.00
10294;DHT22;5192;50.328;7.610;2023-07-31T03:44:24;17.80;45.20
10294;DHT22;5192;50.328;7.610;2023-07-31T03:46:52;17.80;47.10
10294;DHT22;5192;50.328;7.610;2023-07-31T03:49:18;17.80;47.50
10294;DHT22;5192;50.328;7.610;2023-07-31T03:51:45;17.80;47.70
10294;DHT22;5192;50.328;7.610;2023-07-31T03:54:11;17.80;49.30
10294;DHT22;5192;50.328;7.610;2023-07-31T03:56:40;17.70;50.90
10294;DHT22;5192;50.328;7.610;2023-07-31T03:59:05;17.70;51.50
10294;DHT22;5192;50.328;7.610;2023-07-31T04:01:32;17.70;51.60
10294;DHT22;5192;50.328;7.610;2023-07-31T04:03:59;17.70;52.30
10294;DHT22;5192;50.328;7.610;2023-07-31T04:06:25;17.70;51.40
10294;DHT22;5192;50.328;7.610;2023-07-31T04:08:54;17.70;52.10
10294;DHT22;5192;50.328;7.610;2023-07-31T04:11:20;17.70;52.90
10294;DHT22;5192;50.328;7.610;2023-07-31T04:13:49;17.70;53.60
10294;DHT22;5192;50.328;7.610;2023-07-31T04:16:16;17.60;54.20
10294;DHT22;5192;50.328;7.610;2023-07-31T04:18:43;17.60;54.50
10294;DHT22;5192;50.328;7.610;2023-07-31T04:21:10;17.60;55.70
10294;DHT22;5192;50.328;7.610;2023-07-31T04:23:37;17.60;56.50
10294;DHT22;5192;50.328;7.610;2023-07-31T04:26:05;17.60;57.40
10294;DHT22;5192;50.328;7.610;2023-07-31T04:28:32;17.60;59.00
10294;DHT22;5192;50.328;7.610;2023-07-31T04:31:00;17.60;59.70
10294;DHT22;5192;50.328;7.610;2023-07-31T04:33:27;17.60;60.10
10294;DHT22;5192;50.328;7.610;2023-07-31T04:35:53;17.60;60.50
10294;DHT22;5192;50.328;7.610;2023-07-31T04:38:24;17.60;61.60
10294;DHT22;5192;50.328;7.610;2023-07-31T04:40:52;17.60;61.80
10294;DHT22;5192;50.328;7.610;2023-07-31T04:43:20;17.60;63.00
10294;DHT22;5192;50.328;7.610;2023-07-31T04:45:47;17.60;63.10
10294;DHT22;5192;50.328;7.610;2023-07-31T04:48:16;17.60;63.30
10294;DHT22;5192;50.328;7.610;2023-07-31T04:50:43;17.60;63.90
10294;DHT22;5192;50.328;7.610;2023-07-31T04:53:10;17.60;63.50
10294;DHT22;5192;50.328;7.610;2023-07-31T04:55:37;17.60;63.40
10294;DHT22;5192;50.328;7.610;2023-07-31T04:58:03;17.60;64.50
10294;DHT22;5192;50.328;7.610;2023-07-31T05:00:30;17.60;64.50
10294;DHT22;5192;50.328;7.610;2023-07-31T05:02:56;17.60;62.10
10294;DHT22;5192;50.328;7.610;2023-07-31T05:05:23;17.60;62.70
10294;DHT22;5192;50.328;7.610;2023-07-31T05:07:50;17.60;63.70
10294;DHT22;5192;50.328;7.610;2023-07-31T05:10:16;17.60;63.60
10294;DHT22;5192;50.328;7.610;2023-07-31T05:12:43;17.60;64.20
10294;DHT22;5192;50.328;7.610;2023-07-31T05:15:10;17.60;64.80
10294;DHT22;5192;50.328;7.610;2023-07-31T05:17:37;17.60;65.80
10294;DHT22;5192;50.328;7.610;2023-07-31T05:20:06;17.60;64.40
10294;DHT22;5192;50.328;7.610;2023-07-31T05:22:33;17.70;63.70
10294;DHT22;5192;50.328;7.610;2023-07-31T05:25:00;17.70;62.50
10294;DHT22;5192;50.328;7.610;2023-07-31T05:27:26;17.70;62.70
10294;DHT22;5192;50.328;7.610;2023-07-31T05:29:54;17.70;63.50
10294;DHT22;5192;50.328;7.610;2023-07-31T05:32:20;17.70;62.00
10294;DHT22;5192;50.328;7.610;2023-07-31T05:34:47;17.70;61.70
10294;DHT22;5192;50.328;7.610;2023-07-31T05:37:13;17.80;61.30
10294;DHT22;5192;50.328;7.610;2023-07-31T05:39:39;17.90;58.40
10294;DHT22;5192;50.328;7.610;2023-07-31T05:42:05;17.80;57.00
10294;DHT22;5192;50.328;7.610;2023-07-31T05:44:31;17.90;55.30
10294;DHT22;5192;50.328;7.610;2023-07-31T05:46:58;17.90;55.70
10294;DHT22;5192;50.328;7.610;2023-07-31T05:49:25;17.90;55.10
10294;DHT22;5192;50.328;7.610;2023-07-31T05:51:53;18.00;53.30
10294;DHT22;5192;50.328;7.610;2023-07-31T05:54:22;18.00;51.80
10294;DHT22;5192;50.328;7.610;2023-07-31T05:56:49;18.00;52.10
10294;DHT22;5192;50.328;7.610;2023-07-31T05:59:16;18.00;50.60
10294;DHT22;5192;50.328;7.610;2023-07-31T06:01:44;18.10;51.60
10294;DHT22;5192;50.328;7.610;2023-07-31T06:04:11;18.10;52.30
10294;DHT22;5192;50.328;7.610;2023-07-31T06:06:38;18.00;49.10
10294;DHT22;5192;50.328;7.610;2023-07-31T06:09:05;18.10;47.70
10294;DHT22;5192;50.328;7.610;2023-07-31T06:11:32;18.20;49.50
10294;DHT22;5192;50.328;7.610;2023-07-31T06:13:59;18.30;44.80
10294;DHT22;5192;50.328;7.610;2023-07-31T06:16:26;18.30;43.20
10294;DHT22;5192;50.328;7.610;2023-07-31T06:18:53;18.40;39.20
10294;DHT22;5192;50.328;7.610;2023-07-31T06:21:20;18.50;38.90
10294;DHT22;5192;50.328;7.610;2023-07-31T06:23:48;18.50;38.30
10294;DHT22;5192;50.328;7.610;2023-07-31T06:26:14;18.50;34.90
10294;DHT22;5192;50.328;7.610;2023-07-31T06:28:41;18.60;35.40
10294;DHT22;5192;50.328;7.610;2023-07-31T06:31:08;18.70;32.50
10294;DHT22;5192;50.328;7.610;2023-07-31T06:33:34;18.80;30.80
10294;DHT22;5192;50.328;7.610;2023-07-31T06:36:01;18.70;31.20
10294;DHT22;5192;50.328;7.610;2023-07-31T06:38:29;18.70;32.40
10294;DHT22;5192;50.328;7.610;2023-07-31T06:40:56;18.60;33.50
10294;DHT22;5192;50.328;7.610;2023-07-31T06:43:23;18.60;33.20
10294;DHT22;5192;50.328;7.610;2023-07-31T06:45:50;18.60;35.90
10294;DHT22;5192;50.328;7.610;2023-07-31T06:48:18;18.60;39.50
10294;DHT22;5192;50.328;7.610;2023-07-31T06:50:46;18.30;46.80
10294;DHT22;5192;50.328;7.610;2023-07-31T06:53:13;18.30;46.80
10294;DHT22;5192;50.328;7.610;2023-07-31T06:55:41;18.20;48.40
10294;DHT22;5192;50.328;7.610;2023-07-31T06:58:08;18.10;51.00
10294;DHT22;5192;50.328;7.610;2023-07-31T07:00:35;18.10;51.00
10294;DHT22;5192;50.328;7.610;2023-07-31T07:03:02;18.10;45.60
10294;DHT22;5192;50.328;7.610;2023-07-31T07:05:29;18.00;50.60
10294;DHT22;5192;50.328;7.610;2023-07-31T07:07:55;18.10;47.70
10294;DHT22;5192;50.328;7.610;2023-07-31T07:10:22;18.10;51.00
10294;DHT22;5192;50.328;7.610;2023-07-31T07:12:50;18.20;50.90
10294;DHT22;5192;50.328;7.610;2023-07-31T07:15:16;18.30;54.60
10294;DHT22;5192;50.328;7.610;2023-07-31T07:17:44;18.30;41.00
10294;DHT22;5192;50.328;7.610;2023-07-31T07:20:11;18.40;46.00
10294;DHT22;5192;50.328;7.610;2023-07-31T07:22:38;18.40;41.20
10294;DHT22;5192;50.328;7.610;2023-07-31T07:25:05;18.40;39.60
10294;DHT22;5192;50.328;7.610;2023-07-31T07:27:34;18.50;40.60
10294;DHT22;5192;50.328;7.610;2023-07-31T07:30:01;18.60;39.00
10294;DHT22;5192;50.328;7.610;2023-07-31T07:32:27;18.60;36.20
10294;DHT22;5192;50.328;7.610;2023-07-31T07:34:55;18.70;33.90
10294;DHT22;5192;50.328;7.610;2023-07-31T07:37:22;18.70;33.60
10294;DHT22;5192;50.328;7.610;2023-07-31T07:39:50;18.80;31.40
10294;DHT22;5192;50.328;7.610;2023-07-31T07:42:18;18.90;29.30
10294;DHT22;5192;50.328;7.610;2023-07-31T07:44:46;19.20;31.70
10294;DHT22;5192;50.328;7.610;2023-07-31T07:47:12;19.10;27.90
10294;DHT22;5192;50.328;7.610;2023-07-31T07:49:40;19.20;27.40
10294;DHT22;5192;50.328;7.610;2023-07-31T07:52:07;19.30;27.00
10294;DHT22;5192;50.328;7.610;2023-07-31T07:54:34;19.40;26.70
10294;DHT22;5192;50.328;7.610;2023-07-31T07:57:02;19.20;26.00
10294;DHT22;5192;50.328;7.610;2023-07-31T07:59:30;19.40;27.60
10294;DHT22;5192;50.328;7.610;2023-07-31T08:01:57;19.30;24.40
10294;DHT22;5192;50.328;7.610;2023-07-31T08:04:24;19.30;25.30
10294;DHT22;5192;50.328;7.610;2023-07-31T08:06:51;19.40;25.80
10294;DHT22;5192;50.328;7.610;2023-07-31T08:09:18;19.30;24.00
10294;DHT22;5192;50.328;7.610;2023-07-31T08:11:45;19.40;23.80
10294;DHT22;5192;50.328;7.610;2023-07-31T08:14:11;19.40;28.90
10294;DHT22;5192;50.328;7.610;2023-07-31T08:16:37;19.40;30.20
10294;DHT22;5192;50.328;7.610;2023-07-31T08:19:04;19.40;25.80
10294;DHT22;5192;50.328;7.610;2023-07-31T08:21:32;19.30;27.50
10294;DHT22;5192;50.328;7.610;2023-07-31T08:23:59;19.20;29.90
10294;DHT22;5192;50.328;7.610;2023-07-31T08:26:26;19.10;36.30
10294;DHT22;5192;50.328;7.610;2023-07-31T08:28:53;18.90;31.70
10294;DHT22;5192;50.328;7.610;2023-07-31T08:31:21;18.70;35.90
10294;DHT22;5192;50.328;7.610;2023-07-31T08:33:46;18.60;41.60
10294;DHT22;5192;50.328;7.610;2023-07-31T08:36:13;18.30;49.00
10294;DHT22;5192;50.328;7.610;2023-07-31T08:38:39;18.30;52.90
10294;DHT22;5192;50.328;7.610;2023-07-31T08:41:07;18.30;43.90
10294;DHT22;5192;50.328;7.610;2023-07-31T08:43:35;18.30;44.50
10294;DHT22;5192;50.328;7.610;2023-07-31T08:46:02;18.30;36.10
10294;DHT22;5192;50.328;7.610;2023-07-31T08:48:29;18.30;47.30
10294;DHT22;5192;50.328;7.610;2023-07-31T08:50:58;18.30;47.40
10294;DHT22;5192;50.328;7.610;2023-07-31T08:53:24;18.40;40.30
10294;DHT22;5192;50.328;7.610;2023-07-31T08:55:54;18.40;45.80
10294;DHT22;5192;50.328;7.610;2023-07-31T08:58:20;18.50;50.70
10294;DHT22;5192;50.328;7.610;2023-07-31T09:00:50;18.60;46.90
10294;DHT22;5192;50.328;7.610;2023-07-31T09:03:18;18.60;54.40
10294;DHT22;5192;50.328;7.610;2023-07-31T09:05:46;18.60;53.70
10294;DHT22;5192;50.328;7.610;2023-07-31T09:08:14;18.60;40.10
10294;DHT22;5192;50.328;7.610;2023-07-31T09:10:46;18.70;37.70
10294;DHT22;5192;50.328;7.610;2023-07-31T09:13:14;18.70;37.50
10294;DHT22;5192;50.328;7.610;2023-07-31T09:15:42;18.80;35.00
10294;DHT22;5192;50.328;7.610;2023-07-31T09:18:09;18.80;39.70
10294;DHT22;5192;50.328;7.610;2023-07-31T09:20:37;18.80;35.90
10294;DHT22;5192;50.328;7.610;2023-07-31T09:23:22;18.80;32.60
10294;DHT22;5192;50.328;7.610;2023-07-31T09:25:49;18.90;31.20
10294;DHT22;5192;50.328;7.610;2023-07-31T09:28:17;19.00;27.60
10294;DHT22;5192;50.328;7.610;2023-07-31T09:30:51;19.20;31.50
10294;DHT22;5192;50.328;7.610;2023-07-31T09:33:18;19.20;24.40
10294;DHT22;5192;50.328;7.610;2023-07-31T09:35:45;19.30;22.10
10294;DHT22;5192;50.328;7.610;2023-07-31T09:38:16;19.30;21.20
10294;DHT22;5192;50.328;7.610;2023-07-31T09:41:01;19.40;19.60
10294;DHT22;5192;50.328;7.610;2023-07-31T09:43:29;19.60;16.30
10294;DHT22;5192;50.328;7.610;2023-07-31T09:45:57;19.80;16.70
10294;DHT22;5192;50.328;7.610;2023-07-31T09:48:26;20.00;15.20
10294;DHT22;5192;50.328;7.610;2023-07-31T09:50:53;20.20;11.80
10294;DHT22;5192;50.328;7.610;2023-07-31T09:53:28;20.10;10.70
10294;DHT22;5192;50.328;7.610;2023-07-31T09:56:05;20.30;8.00
10294;DHT22;5192;50.328;7.610;2023-07-31T09:58:34;20.50;9.10
10294;DHT22;5192;50.328;7.610;2023-07-31T10:01:03;20.60;5.20
10294;DHT22;5192;50.328;7.610;2023-07-31T10:03:29;20.60;1.10
10294;DHT22;5192;50.328;7.610;2023-07-31T10:06:01;20.70;1.00
10294;DHT22;5192;50.328;7.610;2023-07-31T10:08:32;20.80;4.40
10294;DHT22;5192;50.328;7.610;2023-07-31T10:11:06;20.60;1.60
10294;DHT22;5192;50.328;7.610;2023-07-31T10:13:37;20.40;3.80
10294;DHT22;5192;50.328;7.610;2023-07-31T10:16:05;20.40;2.90
10294;DHT22;5192;50.328;7.610;2023-07-31T10:18:32;20.80;1.00
10294;DHT22;5192;50.328;7.610;2023-07-31T10:21:02;21.00;2.20
10294;DHT22;5192;50.328;7.610;2023-07-31T10:23:29;20.90;1.00
10294;DHT22;5192;50.328;7.610;2023-07-31T10:25:57;20.80;1.10
10294;DHT22;5192;50.328;7.610;2023-07-31T10:28:27;20.90;1.00
10294;DHT22;5192;50.328;7.610;2023-07-31T10:30:56;20.80;1.00
10294;DHT22;5192;50.328;7.610;2023-07-31T10:33:25;20.90;1.00
10294;DHT22;5192;50.328;7.610;2023-07-31T10:36:12;20.90;1.00
10294;DHT22;5192;50.328;7.610;2023-07-31T10:38:40;21.10;1.00
10294;DHT22;5192;50.328;7.610;2023-07-31T10:41:10;21.00;1.00
10294;DHT22;5192;50.328;7.610;2023-07-31T10:43:39;21.20;1.00
10294;DHT22;5192;50.328;7.610;2023-07-31T10:46:14;21.60;1.00
10294;DHT22;5192;50.328;7.610;2023-07-31T10:48:41;21.70;1.00
10294;DHT22;5192;50.328;7.610;2023-07-31T10:51:09;22.00;1.00
10294;DHT22;5192;50.328;7.610;2023-07-31T10:53:41;22.30;1.00
10294;DHT22;5192;50.328;7.610;2023-07-31T10:56:12;22.10;1.00
10294;DHT22;5192;50.328;7.610;2023-07-31T10:58:45;22.00;1.00
10294;DHT22;5192;50.328;7.610;2023-07-31T11:01:17;22.20;1.00
10294;DHT22;5192;50.328;7.610;2023-07-31T11:04:09;22.10;1.00
10294;DHT22;5192;50.328;7.610;2023-07-31T11:06:37;22.40;1.00
10294;DHT22;5192;50.328;7.610;2023-07-31T11:09:03;22.50;1.00
10294;DHT22;5192;50.328;7.610;2023-07-31T11:11:31;22.20;1.00
10294;DHT22;5192;50.328;7.610;2023-07-31T11:14:01;22.20;1.00
10294;DHT22;5192;50.328;7.610;2023-07-31T11:16:28;22.10;1.00
10294;DHT22;5192;50.328;7.610;2023-07-31T11:18:55;21.90;1.00
10294;DHT22;5192;50.328;7.610;2023-07-31T11:21:23;22.00;1.00
10294;DHT22;5192;50.328;7.610;2023-07-31T11:23:51;21.90;1.00
10294;DHT22;5192;50.328;7.610;2023-07-31T11:26:19;21.80;1.00
10294;DHT22;5192;50.328;7.610;2023-07-31T11:28:50;22.00;1.00
10294;DHT22;5192;50.328;7.610;2023-07-31T11:31:17;22.00;1.00
10294;DHT22;5192;50.328;7.610;2023-07-31T11:33:45;22.20;1.00
10294;DHT22;5192;50.328;7.610;2023-07-31T11:36:19;22.30;1.00
10294;DHT22;5192;50.328;7.610;2023-07-31T11:38:47;22.20;1.00
10294;DHT22;5192;50.328;7.610;2023-07-31T11:41:16;22.00;1.00
10294;DHT22;5192;50.328;7.610;2023-07-31T11:43:45;22.20;1.00
10294;DHT22;5192;50.328;7.610;2023-07-31T11:46:11;22.30;1.00
10294;DHT22;5192;50.328;7.610;2023-07-31T11:48:38;22.40;1.00
10294;DHT22;5192;50.328;7.610;2023-07-31T11:51:08;22.60;1.00
10294;DHT22;5192;50.328;7.610;2023-07-31T11:53:54;22.90;1.00
10294;DHT22;5192;50.328;7.610;2023-07-31T11:56:23;23.00;1.00
10294;DHT22;5192;50.328;7.610;2023-07-31T11:58:58;23.00;1.00
10294;DHT22;5192;50.328;7.610;2023-07-31T12:01:26;23.20;1.00
10294;DHT22;5192;50.328;7.610;2023-07-31T12:03:57;23.40;1.00
10294;DHT22;5192;50.328;7.610;2023-07-31T12:06:33;23.50;1.00
10294;DHT22;5192;50.328;7.610;2023-07-31T12:09:07;23.30;1.00
10294;DHT22;5192;50.328;7.610;2023-07-31T12:11:49;23.50;1.00
10294;DHT22;5192;50.328;7.610;2023-07-31T12:14:33;23.20;1.00
10294;DHT22;5192;50.328;7.610;2023-07-31T12:17:04;23.30;1.00
10294;DHT22;5192;50.328;7.610;2023-07-31T12:19:35;23.70;1.00
10294;DHT22;5192;50.328;7.610;2023-07-31T12:22:16;23.50;1.00
10294;DHT22;5192;50.328;7.610;2023-07-31T12:24:43;23.70;1.00
10294;DHT22;5192;50.328;7.610;2023-07-31T12:27:15;23.90;1.00
10294;DHT22;5192;50.328;7.610;2023-07-31T12:29:45;23.60;1.00
10294;DHT22;5192;50.328;7.610;2023-07-31T12:32:29;23.30;1.00
10294;DHT22;5192;50.328;7.610;2023-07-31T12:34:59;23.40;1.00
10294;DHT22;5192;50.328;7.610;2023-07-31T12:37:26;23.50;1.00
10294;DHT22;5192;50.328;7.610;2023-07-31T12:39:53;23.50;1.00
10294;DHT22;5192;50.328;7.610;2023-07-31T12:42:20;23.70;1.00
10294;DHT22;5192;50.328;7.610;2023-07-31T12:44:48;23.30;1.00
10294;DHT22;5192;50.328;7.610;2023-07-31T12:47:17;23.30;1.00
10294;DHT22;5192;50.328;7.610;2023-07-31T12:49:43;23.40;1.00
10294;DHT22;5192;50.328;7.610;2023-07-31T12:52:11;23.10;1.00
10294;DHT22;5192;50.328;7.610;2023-07-31T12:54:40;23.00;1.00
10294;DHT22;5192;50.328;7.610;2023-07-31T12:57:07;22.60;1.00
10294;DHT22;5192;50.328;7.610;2023-07-31T12:59:33;22.40;1.00
10294;DHT22;5192;50.328;7.610;2023-07-31T13:02:00;22.30;1.00
10294;DHT22;5192;50.328;7.610;2023-07-31T13:04:27;22.50;1.00
10294;DHT22;5192;50.328;7.610;2023-07-31T13:06:53;22.40;1.00
10294;DHT22;5192;50.328;7.610;2023-07-31T13:09:20;22.30;1.00
10294;DHT22;5192;50.328;7.610;2023-07-31T13:11:47;22.10;1.00
10294;DHT22;5192;50.328;7.610;2023-07-31T13:14:13;22.20;1.00
10294;DHT22;5192;50.328;7.610;2023-07-31T13:16:39;22.10;1.00
10294;DHT22;5192;50.328;7.610;2023-07-31T13:19:06;22.20;1.00
10294;DHT22;5192;50.328;7.610;2023-07-31T13:21:32;22.20;1.00
10294;DHT22;5192;50.328;7.610;2023-07-31T13:24:02;22.20;1.00
10294;DHT22;5192;50.328;7.610;2023-07-31T13:26:30;22.10;1.00
10294;DHT22;5192;50.328;7.610;2023-07-31T13:28:56;22.10;1.00
10294;DHT22;5192;50.328;7.610;2023-07-31T13:31:24;22.10;1.00
10294;DHT22;5192;50.328;7.610;2023-07-31T13:33:50;21.90;1.00
10294;DHT22;5192;50.328;7.610;2023-07-31T13:36:17;21.80;1.00
10294;DHT22;5192;50.328;7.610;2023-07-31T13:38:44;21.60;1.00
10294;DHT22;5192;50.328;7.610;2023-07-31T13:41:12;21.30;1.00
10294;DHT22;5192;50.328;7.610;2023-07-31T13:43:40;21.50;1.00
10294;DHT22;5192;50.328;7.610;2023-07-31T13:46:09;21.20;1.00
10294;DHT22;5192;50.328;7.610;2023-07-31T13:48:37;21.10;1.00
10294;DHT22;5192;50.328;7.610;2023-07-31T13:51:04;21.30;1.00
10294;DHT22;5192;50.328;7.610;2023-07-31T13:53:31;21.10;1.00
10294;DHT22;5192;50.328;7.610;2023-07-31T13:55:58;21.20;1.00
10294;DHT22;5192;50.328;7.610;2023-07-31T13:58:24;20.90;1.00
10294;DHT22;5192;50.328;7.610;2023-07-31T14:00:51;20.90;1.00
10294;DHT22;5192;50.328;7.610;2023-07-31T14:03:17;21.00;1.00
10294;DHT22;5192;50.328;7.610;2023-07-31T14:05:44;21.20;1.00
10294;DHT22;5192;50.328;7.610;2023-07-31T14:08:11;21.20;1.00
10294;DHT22;5192;50.328;7.610;2023-07-31T14:10:38;21.30;1.00
10294;DHT22;5192;50.328;7.610;2023-07-31T14:13:04;21.30;1.00
10294;DHT22;5192;50.328;7.610;2023-07-31T14:15:31;21.00;1.00
10294;DHT22;5192;50.328;7.610;2023-07-31T14:17:57;21.10;1.00
10294;DHT22;5192;50.328;7.610;2023-07-31T14:20:24;21.20;1.00
10294;DHT22;5192;50.328;7.610;2023-07-31T14:22:51;21.30;1.00
10294;DHT22;5192;50.328;7.610;2023-07-31T14:25:18;21.10;1.00
10294;DHT22;5192;50.328;7.610;2023-07-31T14:27:44;21.20;1.00
10294;DHT22;5192;50.328;7.610;2023-07-31T14:30:14;21.40;1.00
10294;DHT22;5192;50.328;7.610;2023-07-31T14:32:44;21.70;1.00
10294;DHT22;5192;50.328;7.610;2023-07-31T14:35:11;21.50;1.00
10294;DHT22;5192;50.328;7.610;2023-07-31T14:37:40;21.40;1.00
10294;DHT22;5192;50.328;7.610;2023-07-31T14:40:10;21.10;1.00
10294;DHT22;5192;50.328;7.610;2023-07-31T14:42:39;21.00;1.00
10294;DHT22;5192;50.328;7.610;2023-07-31T14:45:07;21.00;1.00
10294;DHT22;5192;50.328;7.610;2023-07-31T14:47:33;21.10;1.00
10294;DHT22;5192;50.328;7.610;2023-07-31T14:50:00;21.00;1.00
10294;DHT22;5192;50.328;7.610;2023-07-31T14:52:26;20.70;1.60
10294;DHT22;5192;50.328;7.610;2023-07-31T14:54:52;20.60;3.80
10294;DHT22;5192;50.328;7.610;2023-07-31T14:57:18;20.50;5.60
10294;DHT22;5192;50.328;7.610;2023-07-31T14:59:45;20.60;7.40
10294;DHT22;5192;50.328;7.610;2023-07-31T15:02:12;20.40;7.70
10294;DHT22;5192;50.328;7.610;2023-07-31T15:04:39;20.40;9.30
10294;DHT22;5192;50.328;7.610;2023-07-31T15:07:06;20.20;10.10
10294;DHT22;5192;50.328;7.610;2023-07-31T15:09:33;20.20;12.20
10294;DHT22;5192;50.328;7.610;2023-07-31T15:12:00;20.00;14.50
10294;DHT22;5192;50.328;7.610;2023-07-31T15:14:26;20.10;14.90
10294;DHT22;5192;50.328;7.610;2023-07-31T15:16:58;20.10;14.90
10294;DHT22;5192;50.328;7.610;2023-07-31T15:19:25;20.10;17.80
10294;DHT22;5192;50.328;7.610;2023-07-31T15:21:54;20.10;14.60
10294;DHT22;5192;50.328;7.610;2023-07-31T15:24:20;20.10;18.90
10294;DHT22;5192;50.328;7.610;2023-07-31T15:26:48;20.10;17.10
10294;DHT22;5192;50.328;7.610;2023-07-31T15:29:15;19.80;19.20
10294;DHT22;5192;50.328;7.610;2023-07-31T15:31:58;19.90;20.00
10294;DHT22;5192;50.328;7.610;2023-07-31T15:34:33;20.00;20.80
10294;DHT22;5192;50.328;7.610;2023-07-31T15:36:59;19.80;19.80
10294;DHT22;5192;50.328;7.610;2023-07-31T15:39:26;19.90;19.60
10294;DHT22;5192;50.328;7.610;2023-07-31T15:41:52;19.90;19.90
10294;DHT22;5192;50.328;7.610;2023-07-31T15:44:18;19.80;20.40
10294;DHT22;5192;50.328;7.610;2023-07-31T15:46:46;19.80;22.00
10294;DHT22;5192;50.328;7.610;2023-07-31T15:49:13;19.90;21.10
10294;DHT22;5192;50.328;7.610;2023-07-31T15:51:41;19.80;21.20
10294;DHT22;5192;50.328;7.610;2023-07-31T15:54:08;19.70;22.00
10294;DHT22;5192;50.328;7.610;2023-07-31T15:56:34;19.80;21.90
10294;DHT22;5192;50.328;7.610;2023-07-31T15:59:02;19.80;19.90
10294;DHT22;5192;50.328;7.610;2023-07-31T16:01:30;19.80;21.20